sensor_id;sensor_type;location;lat;lon;timestamp;temperature;humidity
45044;DHT22;30784;48.490;9.688;2023-07-24T00:01:30;23.70;39.20
45044;DHT22;30784;48.490;9.688;2023-07-24T00:03:55;23.80;39.30
45044;DHT22;30784;48.490;9.688;2023-07-24T00:06:22;23.80;39.20
45044;DHT22;30784;48.490;9.688;2023-07-24T00:08:47;23.80;39.30
45044;DHT22;30784;48.490;9.688;2023-07-24T00:11:13;23.80;39.30
45044;DHT22;30784;48.490;9.688;2023-07-24T00:13:38;23.80;39.30
45044;DHT22;30784;48.490;9.688;2023-07-24T00:16:10;23.80;39.30
45044;DHT22;30784;48.490;9.688;2023-07-24T00:18:36;23.70;39.10
45044;DHT22;30784;48.490;9.688;2023-07-24T00:21:01;23.70;39.30
45044;DHT22;30784;48.490;9.688;2023-07-24T00:23:27;23.70;39.30
45044;DHT22;30784;48.490;9.688;2023-07-24T00:25:52;23.70;39.20
45044;DHT22;30784;48.490;9.688;2023-07-24T00:28:19;23.70;39.20
45044;DHT22;30784;48.490;9.688;2023-07-24T00:30:44;23.70;39.30
45044;DHT22;30784;48.490;9.688;2023-07-24T00:33:10;23.70;39.40
45044;DHT22;30784;48.490;9.688;2023-07-24T00:35:35;23.70;39.50
45044;DHT22;30784;48.490;9.688;2023-07-24T00:38:01;23.70;39.60
45044;DHT22;30784;48.490;9.688;2023-07-24T00:40:26;23.70;39.60
45044;DHT22;30784;48.490;9.688;2023-07-24T00:42:52;23.70;39.70
45044;DHT22;30784;48.490;9.688;2023-07-24T00:45:17;23.70;39.80
45044;DHT22;30784;48.490;9.688;2023-07-24T00:47:43;23.70;39.80
45044;DHT22;30784;48.490;9.688;2023-07-24T00:50:09;23.70;39.90
45044;DHT22;30784;48.490;9.688;2023-07-24T00:52:36;23.70;40.00
45044;DHT22;30784;48.490;9.688;2023-07-24T00:55:03;23.70;40.00
45044;DHT22;30784;48.490;9.688;2023-07-24T00:57:28;23.70;40.00
45044;DHT22;30784;48.490;9.688;2023-07-24T00:59:54;23.70;40.10
45044;DHT22;30784;48.490;9.688;2023-07-24T01:02:19;23.70;40.00
45044;DHT22;30784;48.490;9.688;2023-07-24T01:04:45;23.70;40.60
45044;DHT22;30784;48.490;9.688;2023-07-24T01:07:11;23.70;40.10
45044;DHT22;30784;48.490;9.688;2023-07-24T01:09:37;23.60;40.10
45044;DHT22;30784;48.490;9.688;2023-07-24T01:14:55;23.60;40.10
45044;DHT22;30784;48.490;9.688;2023-07-24T01:17:24;23.50;39.80
45044;DHT22;30784;48.490;9.688;2023-07-24T01:19:53;23.60;40.20
45044;DHT22;30784;48.490;9.688;2023-07-24T01:27:47;23.50;40.40
45044;DHT22;30784;48.490;9.688;2023-07-24T01:30:16;23.50;40.60
45044;DHT22;30784;48.490;9.688;2023-07-24T01:32:42;23.40;40.60
45044;DHT22;30784;48.490;9.688;2023-07-24T01:35:07;23.40;40.70
45044;DHT22;30784;48.490;9.688;2023-07-24T01:37:34;23.40;40.90
45044;DHT22;30784;48.490;9.688;2023-07-24T01:40:00;23.30;41.00
45044;DHT22;30784;48.490;9.688;2023-07-24T01:42:27;23.30;41.00
45044;DHT22;30784;48.490;9.688;2023-07-24T01:44:54;23.30;41.20
45044;DHT22;30784;48.490;9.688;2023-07-24T01:47:20;23.20;41.20
45044;DHT22;30784;48.490;9.688;2023-07-24T01:49:46;23.20;41.30
45044;DHT22;30784;48.490;9.688;2023-07-24T01:52:12;23.10;41.40
45044;DHT22;30784;48.490;9.688;2023-07-24T01:54:37;23.10;41.40
45044;DHT22;30784;48.490;9.688;2023-07-24T01:57:03;23.10;41.50
45044;DHT22;30784;48.490;9.688;2023-07-24T01:59:28;23.10;41.60
45044;DHT22;30784;48.490;9.688;2023-07-24T02:01:54;23.00;41.50
45044;DHT22;30784;48.490;9.688;2023-07-24T02:04:19;23.00;41.70
45044;DHT22;30784;48.490;9.688;2023-07-24T02:06:50;23.00;41.70
45044;DHT22;30784;48.490;9.688;2023-07-24T02:09:17;23.00;41.80
45044;DHT22;30784;48.490;9.688;2023-07-24T02:11:43;23.00;41.90
45044;DHT22;30784;48.490;9.688;2023-07-24T02:14:11;23.00;42.20
45044;DHT22;30784;48.490;9.688;2023-07-24T02:16:37;23.00;42.50
45044;DHT22;30784;48.490;9.688;2023-07-24T02:19:02;23.00;43.10
45044;DHT22;30784;48.490;9.688;2023-07-24T02:21:28;22.90;43.30
45044;DHT22;30784;48.490;9.688;2023-07-24T02:23:53;22.90;43.40
45044;DHT22;30784;48.490;9.688;2023-07-24T02:26:19;22.90;43.80
45044;DHT22;30784;48.490;9.688;2023-07-24T02:28:44;22.90;43.70
45044;DHT22;30784;48.490;9.688;2023-07-24T02:31:10;22.80;43.80
45044;DHT22;30784;48.490;9.688;2023-07-24T02:33:36;22.70;43.80
45044;DHT22;30784;48.490;9.688;2023-07-24T02:36:01;22.70;43.90
45044;DHT22;30784;48.490;9.688;2023-07-24T02:38:27;22.60;44.00
45044;DHT22;30784;48.490;9.688;2023-07-24T02:40:52;22.50;44.30
45044;DHT22;30784;48.490;9.688;2023-07-24T02:43:18;22.50;44.70
45044;DHT22;30784;48.490;9.688;2023-07-24T02:45:43;22.40;44.60
45044;DHT22;30784;48.490;9.688;2023-07-24T02:48:09;22.30;44.90
45044;DHT22;30784;48.490;9.688;2023-07-24T02:50:35;22.30;45.30
45044;DHT22;30784;48.490;9.688;2023-07-24T02:53:00;22.30;46.10
45044;DHT22;30784;48.490;9.688;2023-07-24T02:55:26;22.20;45.50
45044;DHT22;30784;48.490;9.688;2023-07-24T02:57:51;22.10;45.60
45044;DHT22;30784;48.490;9.688;2023-07-24T03:00:17;22.10;45.60
45044;DHT22;30784;48.490;9.688;2023-07-24T03:02:43;22.10;45.80
45044;DHT22;30784;48.490;9.688;2023-07-24T03:05:08;22.10;45.60
45044;DHT22;30784;48.490;9.688;2023-07-24T03:07:34;22.10;45.90
45044;DHT22;30784;48.490;9.688;2023-07-24T03:10:00;22.00;46.40
45044;DHT22;30784;48.490;9.688;2023-07-24T03:12:25;22.10;46.30
45044;DHT22;30784;48.490;9.688;2023-07-24T03:14:51;22.00;46.10
45044;DHT22;30784;48.490;9.688;2023-07-24T03:17:16;22.00;46.10
45044;DHT22;30784;48.490;9.688;2023-07-24T03:19:42;22.00;46.20
45044;DHT22;30784;48.490;9.688;2023-07-24T03:22:08;22.00;46.50
45044;DHT22;30784;48.490;9.688;2023-07-24T03:24:34;22.00;46.50
45044;DHT22;30784;48.490;9.688;2023-07-24T03:27:00;22.00;46.50
45044;DHT22;30784;48.490;9.688;2023-07-24T03:29:26;22.00;46.60
45044;DHT22;30784;48.490;9.688;2023-07-24T03:31:51;21.90;46.60
45044;DHT22;30784;48.490;9.688;2023-07-24T03:34:17;21.90;46.80
45044;DHT22;30784;48.490;9.688;2023-07-24T03:36:42;21.90;47.00
45044;DHT22;30784;48.490;9.688;2023-07-24T03:39:10;21.90;46.90
45044;DHT22;30784;48.490;9.688;2023-07-24T03:41:36;21.80;47.00
45044;DHT22;30784;48.490;9.688;2023-07-24T03:44:02;21.80;45.90
45044;DHT22;30784;48.490;9.688;2023-07-24T03:46:27;21.80;47.40
45044;DHT22;30784;48.490;9.688;2023-07-24T03:48:53;21.80;47.60
45044;DHT22;30784;48.490;9.688;2023-07-24T03:51:18;21.70;47.80
45044;DHT22;30784;48.490;9.688;2023-07-24T03:53:44;21.60;47.80
45044;DHT22;30784;48.490;9.688;2023-07-24T03:56:09;21.60;48.00
45044;DHT22;30784;48.490;9.688;2023-07-24T03:58:35;21.50;48.20
45044;DHT22;30784;48.490;9.688;2023-07-24T04:01:00;21.50;48.10
45044;DHT22;30784;48.490;9.688;2023-07-24T04:03:26;21.40;48.40
45044;DHT22;30784;48.490;9.688;2023-07-24T04:05:51;21.40;48.60
45044;DHT22;30784;48.490;9.688;2023-07-24T04:08:17;21.40;48.80
45044;DHT22;30784;48.490;9.688;2023-07-24T04:10:42;21.30;48.90
45044;DHT22;30784;48.490;9.688;2023-07-24T04:13:08;21.30;48.90
45044;DHT22;30784;48.490;9.688;2023-07-24T04:15:33;21.30;49.10
45044;DHT22;30784;48.490;9.688;2023-07-24T04:17:59;21.30;48.90
45044;DHT22;30784;48.490;9.688;2023-07-24T04:20:24;21.30;49.10
45044;DHT22;30784;48.490;9.688;2023-07-24T04:22:50;21.30;49.40
45044;DHT22;30784;48.490;9.688;2023-07-24T04:25:15;21.30;49.50
45044;DHT22;30784;48.490;9.688;2023-07-24T04:27:41;21.20;49.70
45044;DHT22;30784;48.490;9.688;2023-07-24T04:30:07;21.20;49.70
45044;DHT22;30784;48.490;9.688;2023-07-24T04:32:33;21.20;49.80
45044;DHT22;30784;48.490;9.688;2023-07-24T04:34:58;21.20;49.90
45044;DHT22;30784;48.490;9.688;2023-07-24T04:37:24;21.20;50.00
45044;DHT22;30784;48.490;9.688;2023-07-24T04:39:49;21.20;49.90
45044;DHT22;30784;48.490;9.688;2023-07-24T04:42:15;21.20;50.30
45044;DHT22;30784;48.490;9.688;2023-07-24T04:44:40;21.20;50.20
45044;DHT22;30784;48.490;9.688;2023-07-24T04:47:06;21.30;50.50
45044;DHT22;30784;48.490;9.688;2023-07-24T04:49:32;21.30;50.40
45044;DHT22;30784;48.490;9.688;2023-07-24T04:51:59;21.30;50.60
45044;DHT22;30784;48.490;9.688;2023-07-24T04:54:25;21.30;50.80
45044;DHT22;30784;48.490;9.688;2023-07-24T04:56:50;21.40;50.80
45044;DHT22;30784;48.490;9.688;2023-07-24T04:59:16;21.40;50.90
45044;DHT22;30784;48.490;9.688;2023-07-24T05:01:41;21.40;50.80
45044;DHT22;30784;48.490;9.688;2023-07-24T05:04:07;21.50;51.00
45044;DHT22;30784;48.490;9.688;2023-07-24T05:06:32;21.40;50.70
45044;DHT22;30784;48.490;9.688;2023-07-24T05:08:58;21.50;50.80
45044;DHT22;30784;48.490;9.688;2023-07-24T05:11:23;21.60;50.90
45044;DHT22;30784;48.490;9.688;2023-07-24T05:13:49;21.60;50.80
45044;DHT22;30784;48.490;9.688;2023-07-24T05:16:14;21.60;50.90
45044;DHT22;30784;48.490;9.688;2023-07-24T05:18:40;21.70;50.90
45044;DHT22;30784;48.490;9.688;2023-07-24T05:21:05;21.70;51.00
45044;DHT22;30784;48.490;9.688;2023-07-24T05:23:31;21.80;51.00
45044;DHT22;30784;48.490;9.688;2023-07-24T05:26:02;21.80;51.20
45044;DHT22;30784;48.490;9.688;2023-07-24T05:28:30;21.80;51.00
45044;DHT22;30784;48.490;9.688;2023-07-24T05:30:59;21.80;51.30
45044;DHT22;30784;48.490;9.688;2023-07-24T05:33:25;21.80;51.20
45044;DHT22;30784;48.490;9.688;2023-07-24T05:35:50;21.80;51.20
45044;DHT22;30784;48.490;9.688;2023-07-24T05:38:16;21.80;51.50
45044;DHT22;30784;48.490;9.688;2023-07-24T05:40:41;21.90;51.50
45044;DHT22;30784;48.490;9.688;2023-07-24T05:43:07;21.90;51.70
45044;DHT22;30784;48.490;9.688;2023-07-24T05:45:32;21.90;51.60
45044;DHT22;30784;48.490;9.688;2023-07-24T05:47:58;21.90;51.70
45044;DHT22;30784;48.490;9.688;2023-07-24T05:50:23;21.90;51.90
45044;DHT22;30784;48.490;9.688;2023-07-24T05:52:49;21.90;51.80
45044;DHT22;30784;48.490;9.688;2023-07-24T05:55:14;21.90;51.90
45044;DHT22;30784;48.490;9.688;2023-07-24T05:57:40;21.90;52.00
45044;DHT22;30784;48.490;9.688;2023-07-24T06:00:06;21.90;52.00
45044;DHT22;30784;48.490;9.688;2023-07-24T06:02:32;21.90;52.20
45044;DHT22;30784;48.490;9.688;2023-07-24T06:04:57;22.00;52.10
45044;DHT22;30784;48.490;9.688;2023-07-24T06:07:23;22.00;52.20
45044;DHT22;30784;48.490;9.688;2023-07-24T06:09:49;22.00;52.30
45044;DHT22;30784;48.490;9.688;2023-07-24T06:12:14;22.10;52.30
45044;DHT22;30784;48.490;9.688;2023-07-24T06:14:40;22.10;52.40
45044;DHT22;30784;48.490;9.688;2023-07-24T06:17:05;22.20;52.30
45044;DHT22;30784;48.490;9.688;2023-07-24T06:19:31;22.20;52.50
45044;DHT22;30784;48.490;9.688;2023-07-24T06:21:56;22.20;52.50
45044;DHT22;30784;48.490;9.688;2023-07-24T06:24:22;22.30;52.70
45044;DHT22;30784;48.490;9.688;2023-07-24T06:26:49;22.30;52.70
45044;DHT22;30784;48.490;9.688;2023-07-24T06:29:14;22.30;52.80
45044;DHT22;30784;48.490;9.688;2023-07-24T06:31:40;22.30;53.00
45044;DHT22;30784;48.490;9.688;2023-07-24T06:34:06;22.30;53.00
45044;DHT22;30784;48.490;9.688;2023-07-24T06:36:31;22.30;53.10
45044;DHT22;30784;48.490;9.688;2023-07-24T06:38:57;22.30;53.50
45044;DHT22;30784;48.490;9.688;2023-07-24T06:41:22;22.30;53.50
45044;DHT22;30784;48.490;9.688;2023-07-24T06:43:48;22.30;53.80
45044;DHT22;30784;48.490;9.688;2023-07-24T06:46:14;22.20;53.90
45044;DHT22;30784;48.490;9.688;2023-07-24T06:48:40;22.20;54.10
45044;DHT22;30784;48.490;9.688;2023-07-24T06:51:05;22.20;54.20
45044;DHT22;30784;48.490;9.688;2023-07-24T06:53:31;22.20;54.30
45044;DHT22;30784;48.490;9.688;2023-07-24T06:55:56;22.10;54.40
45044;DHT22;30784;48.490;9.688;2023-07-24T06:58:22;22.10;54.50
45044;DHT22;30784;48.490;9.688;2023-07-24T07:00:47;22.10;54.40
45044;DHT22;30784;48.490;9.688;2023-07-24T07:03:13;22.10;54.80
45044;DHT22;30784;48.490;9.688;2023-07-24T07:05:38;22.10;54.80
45044;DHT22;30784;48.490;9.688;2023-07-24T07:08:04;22.10;54.90
45044;DHT22;30784;48.490;9.688;2023-07-24T07:10:31;22.10;54.90
45044;DHT22;30784;48.490;9.688;2023-07-24T07:12:57;22.10;55.00
45044;DHT22;30784;48.490;9.688;2023-07-24T07:15:22;22.10;55.10
45044;DHT22;30784;48.490;9.688;2023-07-24T07:17:48;22.10;55.10
45044;DHT22;30784;48.490;9.688;2023-07-24T07:20:13;22.10;55.30
45044;DHT22;30784;48.490;9.688;2023-07-24T07:22:39;22.10;55.20
45044;DHT22;30784;48.490;9.688;2023-07-24T07:25:05;22.20;55.40
45044;DHT22;30784;48.490;9.688;2023-07-24T07:27:30;22.20;55.40
45044;DHT22;30784;48.490;9.688;2023-07-24T07:29:56;22.20;55.40
45044;DHT22;30784;48.490;9.688;2023-07-24T07:32:21;22.20;55.20
45044;DHT22;30784;48.490;9.688;2023-07-24T07:34:47;22.20;54.90
45044;DHT22;30784;48.490;9.688;2023-07-24T07:37:12;22.20;54.70
45044;DHT22;30784;48.490;9.688;2023-07-24T07:39:38;22.30;54.50
45044;DHT22;30784;48.490;9.688;2023-07-24T07:42:04;22.30;54.20
45044;DHT22;30784;48.490;9.688;2023-07-24T07:44:29;22.40;54.10
45044;DHT22;30784;48.490;9.688;2023-07-24T07:46:55;22.40;53.80
45044;DHT22;30784;48.490;9.688;2023-07-24T07:49:20;22.50;53.70
45044;DHT22;30784;48.490;9.688;2023-07-24T07:51:46;22.60;53.10
45044;DHT22;30784;48.490;9.688;2023-07-24T07:54:11;22.70;53.20
45044;DHT22;30784;48.490;9.688;2023-07-24T07:56:37;22.70;53.00
45044;DHT22;30784;48.490;9.688;2023-07-24T07:59:02;22.80;52.80
45044;DHT22;30784;48.490;9.688;2023-07-24T08:01:28;22.90;52.20
45044;DHT22;30784;48.490;9.688;2023-07-24T08:03:53;23.00;51.90
45044;DHT22;30784;48.490;9.688;2023-07-24T08:06:19;23.10;51.60
45044;DHT22;30784;48.490;9.688;2023-07-24T08:08:46;23.10;51.50
45044;DHT22;30784;48.490;9.688;2023-07-24T08:11:12;23.20;51.10
45044;DHT22;30784;48.490;9.688;2023-07-24T08:13:37;23.30;50.30
45044;DHT22;30784;48.490;9.688;2023-07-24T08:16:03;23.40;50.10
45044;DHT22;30784;48.490;9.688;2023-07-24T08:18:31;23.50;49.90
45044;DHT22;30784;48.490;9.688;2023-07-24T08:20:57;23.70;49.60
45044;DHT22;30784;48.490;9.688;2023-07-24T08:23:23;23.70;49.30
45044;DHT22;30784;48.490;9.688;2023-07-24T08:25:55;23.90;49.20
45044;DHT22;30784;48.490;9.688;2023-07-24T08:28:21;24.00;48.60
45044;DHT22;30784;48.490;9.688;2023-07-24T08:30:55;24.00;48.80
45044;DHT22;30784;48.490;9.688;2023-07-24T08:33:21;24.10;48.20
45044;DHT22;30784;48.490;9.688;2023-07-24T08:35:46;24.20;47.60
45044;DHT22;30784;48.490;9.688;2023-07-24T08:38:12;24.30;47.70
45044;DHT22;30784;48.490;9.688;2023-07-24T08:40:37;24.30;47.20
45044;DHT22;30784;48.490;9.688;2023-07-24T08:43:04;24.40;47.50
45044;DHT22;30784;48.490;9.688;2023-07-24T08:45:30;24.40;47.20
45044;DHT22;30784;48.490;9.688;2023-07-24T08:47:56;24.50;47.00
45044;DHT22;30784;48.490;9.688;2023-07-24T08:50:23;24.50;46.60
45044;DHT22;30784;48.490;9.688;2023-07-24T08:52:50;24.60;46.70
45044;DHT22;30784;48.490;9.688;2023-07-24T08:55:16;24.60;46.90
45044;DHT22;30784;48.490;9.688;2023-07-24T08:57:42;24.70;46.70
45044;DHT22;30784;48.490;9.688;2023-07-24T09:00:08;24.80;46.60
45044;DHT22;30784;48.490;9.688;2023-07-24T09:02:34;24.90;46.20
45044;DHT22;30784;48.490;9.688;2023-07-24T09:05:00;25.00;46.20
45044;DHT22;30784;48.490;9.688;2023-07-24T09:07:26;25.10;46.00
45044;DHT22;30784;48.490;9.688;2023-07-24T09:09:51;25.10;45.70
45044;DHT22;30784;48.490;9.688;2023-07-24T09:12:18;25.20;45.50
45044;DHT22;30784;48.490;9.688;2023-07-24T09:14:43;25.20;45.40
45044;DHT22;30784;48.490;9.688;2023-07-24T09:17:11;25.20;45.20
45044;DHT22;30784;48.490;9.688;2023-07-24T09:19:37;25.30;45.10
45044;DHT22;30784;48.490;9.688;2023-07-24T09:22:16;25.30;45.10
45044;DHT22;30784;48.490;9.688;2023-07-24T09:24:53;25.30;45.30
45044;DHT22;30784;48.490;9.688;2023-07-24T09:27:20;25.30;45.20
45044;DHT22;30784;48.490;9.688;2023-07-24T09:29:46;25.30;45.00
45044;DHT22;30784;48.490;9.688;2023-07-24T09:32:25;25.30;44.80
45044;DHT22;30784;48.490;9.688;2023-07-24T09:34:51;25.30;45.20
45044;DHT22;30784;48.490;9.688;2023-07-24T09:37:32;25.30;44.80
45044;DHT22;30784;48.490;9.688;2023-07-24T09:39:58;25.20;45.00
45044;DHT22;30784;48.490;9.688;2023-07-24T09:42:31;25.30;44.90
45044;DHT22;30784;48.490;9.688;2023-07-24T09:44:56;25.20;44.90
45044;DHT22;30784;48.490;9.688;2023-07-24T09:47:22;25.10;45.10
45044;DHT22;30784;48.490;9.688;2023-07-24T09:49:48;25.10;45.80
45044;DHT22;30784;48.490;9.688;2023-07-24T09:52:14;25.10;46.20
45044;DHT22;30784;48.490;9.688;2023-07-24T09:54:50;25.00;46.70
45044;DHT22;30784;48.490;9.688;2023-07-24T09:57:16;25.00;46.90
45044;DHT22;30784;48.490;9.688;2023-07-24T09:59:43;24.80;47.00
45044;DHT22;30784;48.490;9.688;2023-07-24T10:02:10;24.70;47.20
45044;DHT22;30784;48.490;9.688;2023-07-24T10:04:36;24.50;47.90
45044;DHT22;30784;48.490;9.688;2023-07-24T10:07:04;24.30;48.30
45044;DHT22;30784;48.490;9.688;2023-07-24T10:09:30;24.30;48.90
45044;DHT22;30784;48.490;9.688;2023-07-24T10:11:57;24.10;49.00
45044;DHT22;30784;48.490;9.688;2023-07-24T10:14:23;24.00;49.30
45044;DHT22;30784;48.490;9.688;2023-07-24T10:16:49;23.80;50.00
45044;DHT22;30784;48.490;9.688;2023-07-24T10:19:20;23.70;50.40
45044;DHT22;30784;48.490;9.688;2023-07-24T10:21:50;23.70;50.60
45044;DHT22;30784;48.490;9.688;2023-07-24T10:24:16;23.60;50.60
45044;DHT22;30784;48.490;9.688;2023-07-24T10:26:42;23.50;50.60
45044;DHT22;30784;48.490;9.688;2023-07-24T10:29:09;23.50;51.00
45044;DHT22;30784;48.490;9.688;2023-07-24T10:31:35;23.40;51.10
45044;DHT22;30784;48.490;9.688;2023-07-24T10:34:04;23.30;51.40
45044;DHT22;30784;48.490;9.688;2023-07-24T10:36:34;23.30;52.00
45044;DHT22;30784;48.490;9.688;2023-07-24T10:39:00;23.20;52.00
45044;DHT22;30784;48.490;9.688;2023-07-24T10:41:37;23.20;52.30
45044;DHT22;30784;48.490;9.688;2023-07-24T10:44:03;23.20;51.90
45044;DHT22;30784;48.490;9.688;2023-07-24T10:46:39;23.10;52.70
45044;DHT22;30784;48.490;9.688;2023-07-24T10:49:07;23.10;52.40
45044;DHT22;30784;48.490;9.688;2023-07-24T10:51:32;23.00;52.60
45044;DHT22;30784;48.490;9.688;2023-07-24T10:54:01;23.00;53.00
45044;DHT22;30784;48.490;9.688;2023-07-24T10:56:27;22.90;52.70
45044;DHT22;30784;48.490;9.688;2023-07-24T10:58:54;22.90;52.70
45044;DHT22;30784;48.490;9.688;2023-07-24T11:01:20;22.80;53.00
45044;DHT22;30784;48.490;9.688;2023-07-24T11:03:46;22.70;53.00
45044;DHT22;30784;48.490;9.688;2023-07-24T11:06:17;22.70;53.70
45044;DHT22;30784;48.490;9.688;2023-07-24T11:08:54;22.60;54.10
45044;DHT22;30784;48.490;9.688;2023-07-24T11:11:21;22.50;53.80
45044;DHT22;30784;48.490;9.688;2023-07-24T11:13:48;22.40;54.60
45044;DHT22;30784;48.490;9.688;2023-07-24T11:16:13;22.30;54.50
45044;DHT22;30784;48.490;9.688;2023-07-24T11:18:49;22.20;54.80
45044;DHT22;30784;48.490;9.688;2023-07-24T11:21:15;22.10;54.60
45044;DHT22;30784;48.490;9.688;2023-07-24T11:23:48;22.00;55.20
45044;DHT22;30784;48.490;9.688;2023-07-24T11:26:14;21.90;55.50
45044;DHT22;30784;48.490;9.688;2023-07-24T11:28:40;21.80;56.00
45044;DHT22;30784;48.490;9.688;2023-07-24T11:31:06;21.80;56.10
45044;DHT22;30784;48.490;9.688;2023-07-24T11:33:31;21.70;56.30
45044;DHT22;30784;48.490;9.688;2023-07-24T11:35:57;21.60;56.40
45044;DHT22;30784;48.490;9.688;2023-07-24T11:38:23;21.50;56.50
45044;DHT22;30784;48.490;9.688;2023-07-24T11:40:49;21.40;56.50
45044;DHT22;30784;48.490;9.688;2023-07-24T11:43:22;21.40;56.80
45044;DHT22;30784;48.490;9.688;2023-07-24T11:45:49;21.40;57.00
45044;DHT22;30784;48.490;9.688;2023-07-24T11:48:18;21.30;57.10
45044;DHT22;30784;48.490;9.688;2023-07-24T11:50:48;21.40;57.60
45044;DHT22;30784;48.490;9.688;2023-07-24T11:53:27;21.40;57.40
45044;DHT22;30784;48.490;9.688;2023-07-24T11:55:55;21.50;58.00
45044;DHT22;30784;48.490;9.688;2023-07-24T11:58:22;21.60;58.50
45044;DHT22;30784;48.490;9.688;2023-07-24T12:00:48;21.60;58.80
45044;DHT22;30784;48.490;9.688;2023-07-24T12:03:19;21.70;58.90
45044;DHT22;30784;48.490;9.688;2023-07-24T12:05:44;21.80;59.10
45044;DHT22;30784;48.490;9.688;2023-07-24T12:08:10;21.90;59.40
45044;DHT22;30784;48.490;9.688;2023-07-24T12:10:38;21.90;58.80
45044;DHT22;30784;48.490;9.688;2023-07-24T12:13:04;21.90;58.70
45044;DHT22;30784;48.490;9.688;2023-07-24T12:15:30;22.10;59.00
45044;DHT22;30784;48.490;9.688;2023-07-24T12:17:55;22.10;59.00
45044;DHT22;30784;48.490;9.688;2023-07-24T12:20:22;22.20;59.10
45044;DHT22;30784;48.490;9.688;2023-07-24T12:22:47;22.30;59.30
45044;DHT22;30784;48.490;9.688;2023-07-24T12:25:13;22.30;58.90
45044;DHT22;30784;48.490;9.688;2023-07-24T12:27:39;22.40;58.50
45044;DHT22;30784;48.490;9.688;2023-07-24T12:30:07;22.50;58.60
45044;DHT22;30784;48.490;9.688;2023-07-24T12:32:32;22.50;58.60
45044;DHT22;30784;48.490;9.688;2023-07-24T12:34:58;22.50;58.20
45044;DHT22;30784;48.490;9.688;2023-07-24T12:37:23;22.60;58.00
45044;DHT22;30784;48.490;9.688;2023-07-24T12:39:49;22.60;58.10
45044;DHT22;30784;48.490;9.688;2023-07-24T12:42:16;22.60;58.10
45044;DHT22;30784;48.490;9.688;2023-07-24T12:44:42;22.60;58.30
45044;DHT22;30784;48.490;9.688;2023-07-24T12:47:08;22.60;58.30
45044;DHT22;30784;48.490;9.688;2023-07-24T12:49:34;22.60;58.40
45044;DHT22;30784;48.490;9.688;2023-07-24T12:51:59;22.60;58.50
45044;DHT22;30784;48.490;9.688;2023-07-24T12:54:25;22.60;58.40
45044;DHT22;30784;48.490;9.688;2023-07-24T12:56:51;22.60;58.30
45044;DHT22;30784;48.490;9.688;2023-07-24T12:59:18;22.60;58.30
45044;DHT22;30784;48.490;9.688;2023-07-24T13:01:44;22.60;58.40
45044;DHT22;30784;48.490;9.688;2023-07-24T13:04:10;22.60;58.50
45044;DHT22;30784;48.490;9.688;2023-07-24T13:06:36;22.60;58.20
45044;DHT22;30784;48.490;9.688;2023-07-24T13:09:01;22.60;58.20
45044;DHT22;30784;48.490;9.688;2023-07-24T13:11:28;22.70;58.20
45044;DHT22;30784;48.490;9.688;2023-07-24T13:13:54;22.70;58.10
45044;DHT22;30784;48.490;9.688;2023-07-24T13:16:20;22.70;58.00
45044;DHT22;30784;48.490;9.688;2023-07-24T13:18:45;22.70;58.10
45044;DHT22;30784;48.490;9.688;2023-07-24T13:21:11;22.60;58.00
45044;DHT22;30784;48.490;9.688;2023-07-24T13:23:37;22.70;57.80
45044;DHT22;30784;48.490;9.688;2023-07-24T13:26:02;22.70;57.60
45044;DHT22;30784;48.490;9.688;2023-07-24T13:28:28;22.70;57.70
45044;DHT22;30784;48.490;9.688;2023-07-24T13:30:54;22.70;57.90
45044;DHT22;30784;48.490;9.688;2023-07-24T13:33:19;22.70;57.90
45044;DHT22;30784;48.490;9.688;2023-07-24T13:35:47;22.80;57.90
45044;DHT22;30784;48.490;9.688;2023-07-24T13:38:12;22.80;57.70
45044;DHT22;30784;48.490;9.688;2023-07-24T13:40:38;22.90;57.60
45044;DHT22;30784;48.490;9.688;2023-07-24T13:43:04;22.90;57.40
45044;DHT22;30784;48.490;9.688;2023-07-24T13:45:30;22.90;57.30
45044;DHT22;30784;48.490;9.688;2023-07-24T13:47:57;23.00;57.30
45044;DHT22;30784;48.490;9.688;2023-07-24T13:50:22;23.00;57.10
45044;DHT22;30784;48.490;9.688;2023-07-24T13:52:48;23.00;57.10
45044;DHT22;30784;48.490;9.688;2023-07-24T13:55:13;23.10;56.90
45044;DHT22;30784;48.490;9.688;2023-07-24T13:57:39;23.10;56.80
45044;DHT22;30784;48.490;9.688;2023-07-24T14:00:05;23.10;57.30
45044;DHT22;30784;48.490;9.688;2023-07-24T14:02:31;23.10;57.30
45044;DHT22;30784;48.490;9.688;2023-07-24T14:04:56;23.10;57.00
45044;DHT22;30784;48.490;9.688;2023-07-24T14:07:22;23.10;56.90
45044;DHT22;30784;48.490;9.688;2023-07-24T14:09:47;22.90;56.60
45044;DHT22;30784;48.490;9.688;2023-07-24T14:12:13;23.00;57.00
45044;DHT22;30784;48.490;9.688;2023-07-24T14:14:38;22.90;57.20
45044;DHT22;30784;48.490;9.688;2023-07-24T14:17:04;22.90;57.30
45044;DHT22;30784;48.490;9.688;2023-07-24T14:19:30;22.80;57.60
45044;DHT22;30784;48.490;9.688;2023-07-24T14:21:55;22.70;57.80
45044;DHT22;30784;48.490;9.688;2023-07-24T14:24:21;22.70;57.90
45044;DHT22;30784;48.490;9.688;2023-07-24T14:26:47;22.70;58.00
45044;DHT22;30784;48.490;9.688;2023-07-24T14:29:13;22.60;58.10
45044;DHT22;30784;48.490;9.688;2023-07-24T14:31:38;22.60;58.30
45044;DHT22;30784;48.490;9.688;2023-07-24T14:34:04;22.50;58.70
45044;DHT22;30784;48.490;9.688;2023-07-24T14:36:30;22.40;59.00
45044;DHT22;30784;48.490;9.688;2023-07-24T14:39:03;22.30;58.70
45044;DHT22;30784;48.490;9.688;2023-07-24T14:41:28;22.40;58.80
45044;DHT22;30784;48.490;9.688;2023-07-24T14:43:54;22.20;59.10
45044;DHT22;30784;48.490;9.688;2023-07-24T14:46:19;22.20;59.40
45044;DHT22;30784;48.490;9.688;2023-07-24T14:48:45;22.10;59.50
45044;DHT22;30784;48.490;9.688;2023-07-24T14:51:10;22.10;59.60
45044;DHT22;30784;48.490;9.688;2023-07-24T14:53:36;22.00;59.50
45044;DHT22;30784;48.490;9.688;2023-07-24T14:56:04;22.00;59.50
45044;DHT22;30784;48.490;9.688;2023-07-24T14:58:30;21.90;59.70
45044;DHT22;30784;48.490;9.688;2023-07-24T15:00:56;21.90;60.00
45044;DHT22;30784;48.490;9.688;2023-07-24T15:03:21;21.80;59.90
45044;DHT22;30784;48.490;9.688;2023-07-24T15:05:47;21.80;60.20
45044;DHT22;30784;48.490;9.688;2023-07-24T15:08:13;21.70;60.40
45044;DHT22;30784;48.490;9.688;2023-07-24T15:10:38;21.60;60.50
45044;DHT22;30784;48.490;9.688;2023-07-24T15:13:04;21.60;60.70
45044;DHT22;30784;48.490;9.688;2023-07-24T15:15:30;21.60;60.80
45044;DHT22;30784;48.490;9.688;2023-07-24T15:17:55;21.50;60.80
45044;DHT22;30784;48.490;9.688;2023-07-24T15:20:21;21.50;61.00
45044;DHT22;30784;48.490;9.688;2023-07-24T15:22:47;21.50;61.30
45044;DHT22;30784;48.490;9.688;2023-07-24T15:25:12;21.50;61.30
45044;DHT22;30784;48.490;9.688;2023-07-24T15:27:38;21.50;61.40
45044;DHT22;30784;48.490;9.688;2023-07-24T15:30:04;21.50;61.40
45044;DHT22;30784;48.490;9.688;2023-07-24T15:32:31;21.50;61.60